Terminal Aerodrome Forecast
Issued by NWS Charleston, WV

Home | Current Version | Previous Version | Text Only | Print | Product List | Glossary On
Versions: 1 2 3 4 5 6 7 8 9 10 11 12 13 14 15 16 17 18 19 20 21 22 23 24 25 26 27 28
211
FTUS41 KRLX 251327 AAA
TAFPKB
TAF AMD
KPKB 251327Z 2513/2612 23005KT P6SM BKN008 BKN035 OVC080
     FM251500 25010G19KT P6SM BKN035
     FM251700 25014G27KT P6SM BKN050
     FM260000 27011G18KT P6SM BKN045
     FM260500 27009KT P6SM BKN040=

USA.gov is the U.S. government's official web portal to all federal, state and local government web resources and services.